| time (UTC) | temp F | wind direction | speed MPH | gust MPH | rain 1hr in | rain 24hr in | rain mn in | humidity % | barometer mb |
| 20260906134533 | 61 | 30 | 2.0 | 5.0 | 0.00 | 0.21 | 0.16 | 95 | 1015.1 |
| 20260906134033 | 60 | 111 | 0.0 | 6.0 | 0.00 | 0.21 | 0.16 | 94 | 1015.0 |
| 20260906133533 | 60 | 91 | 2.0 | 6.0 | 0.00 | 0.21 | 0.16 | 95 | 1015.0 |
| 20260906133036 | 60 | 74 | 0.0 | 5.0 | 0.00 | 0.21 | 0.16 | 95 | 1014.9 |
| 20260906132531 | 60 | 74 | 0.0 | 2.0 | 0.00 | 0.21 | 0.16 | 96 | 1015.0 |
| 20260906132030 | 60 | 312 | 0.0 | 2.0 | 0.00 | 0.21 | 0.16 | 96 | 1015.0 |
| 20260906131529 | 60 | 112 | 0.0 | 2.0 | 0.00 | 0.21 | 0.16 | 96 | 1015.0 |
| 20260906131029 | 60 | 80 | 0.0 | 2.0 | 0.00 | 0.21 | 0.16 | 96 | 1015.0 |
| 20260906130528 | 60 | 209 | 0.0 | 1.0 | 0.00 | 0.21 | 0.16 | 96 | 1014.9 |
| 20260906130028 | 59 | 209 | 0.0 | 1.0 | 0.00 | 0.21 | 0.16 | 96 | 1014.8 |
| 20260906125528 | 59 | 184 | 0.0 | 4.0 | 0.00 | 0.21 | 0.16 | 96 | 1014.9 |
| 20260906125027 | 59 | 135 | 1.0 | 4.0 | 0.00 | 0.21 | 0.16 | 97 | 1015.0 |
| 20260906124527 | 59 | 9 | 0.0 | 0.0 | 0.00 | 0.21 | 0.16 | 97 | 1015.0 |
| 20260906124027 | 59 | 26 | 0.0 | 0.0 | 0.00 | 0.21 | 0.16 | 97 | 1015.0 |
| 20260906123526 | 59 | 18 | 0.0 | 2.0 | 0.00 | 0.21 | 0.16 | 97 | 1015.0 |
| 20260906123032 | 59 | 59 | 0.0 | 4.0 | 0.00 | 0.21 | 0.16 | 97 | 1015.0 |
| 20260906122528 | 59 | 15 | 1.0 | 4.0 | 0.00 | 0.21 | 0.16 | 97 | 1015.0 |
| 20260906122028 | 59 | 40 | 0.0 | 0.0 | 0.00 | 0.21 | 0.16 | 97 | 1015.0 |
| 20260906121528 | 58 | 41 | 0.0 | 0.0 | 0.00 | 0.21 | 0.16 | 97 | 1014.9 |
| 20260906121024 | 58 | 40 | 0.0 | 1.0 | 0.00 | 0.21 | 0.16 | 97 | 1014.9 |
| 20260906120524 | 58 | 58 | 0.0 | 1.0 | 0.00 | 0.21 | 0.16 | 97 | 1015.0 |
| 20260906120023 | 58 | 31 | 0.0 | 0.0 | 0.00 | 0.21 | 0.16 | 97 | 1014.9 |
| 20260906115525 | 58 | 339 | 0.0 | 0.0 | 0.00 | 0.21 | 0.16 | 97 | 1014.9 |
| 20260906115022 | 58 | 338 | 0.0 | 0.0 | 0.00 | 0.21 | 0.16 | 97 | 1014.8 |
| 20260906114535 | 58 | 343 | 0.0 | 0.0 | 0.00 | 0.21 | 0.16 | 97 | 1014.8 |
| 20260906114022 | 58 | 343 | 0.0 | 0.0 | 0.00 | 0.21 | 0.16 | 97 | 1014.7 |
| 20260906113522 | 58 | 343 | 0.0 | 0.0 | 0.00 | 0.21 | 0.16 | 97 | 1014.7 |
| 20260906113020 | 58 | 343 | 0.0 | 0.0 | 0.00 | 0.21 | 0.16 | 97 | 1014.7 |
| 20260906112519 | 58 | 343 | 0.0 | 0.0 | 0.00 | 0.21 | 0.16 | 97 | 1014.5 |
| 20260906112019 | 58 | 343 | 0.0 | 0.0 | 0.00 | 0.21 | 0.16 | 97 | 1014.4 |
| 20260906111525 | 58 | 343 | 0.0 | 0.0 | 0.00 | 0.21 | 0.16 | 97 | 1014.4 |
| 20260906111017 | 57 | 343 | 0.0 | 0.0 | 0.00 | 0.21 | 0.16 | 97 | 1014.4 |
| 20260906110516 | 57 | 343 | 0.0 | 0.0 | 0.00 | 0.21 | 0.16 | 97 | 1014.3 |
| 20260906110014 | 57 | 343 | 0.0 | 0.0 | 0.00 | 0.21 | 0.16 | 97 | 1014.3 |
| 20260906105615 | 57 | 343 | 0.0 | 0.0 | 0.00 | 0.21 | 0.16 | 97 | 1014.2 |
| 20260906105053 | 57 | 343 | 0.0 | 0.0 | 0.00 | 0.21 | 0.16 | 97 | 1014.1 |
| 20260906104550 | 57 | 343 | 0.0 | 0.0 | 0.00 | 0.21 | 0.16 | 97 | 1014.1 |
| 20260906104050 | 57 | 343 | 0.0 | 0.0 | 0.00 | 0.21 | 0.16 | 97 | 1014.0 |
| 20260906103550 | 57 | 343 | 0.0 | 0.0 | 0.00 | 0.21 | 0.16 | 97 | 1013.9 |
| 20260906103048 | 57 | 343 | 0.0 | 0.0 | 0.00 | 0.21 | 0.16 | 97 | 1013.8 |
| 20260906102549 | 57 | 343 | 0.0 | 0.0 | 0.00 | 0.21 | 0.16 | 97 | 1013.7 |
| 20260906102052 | 57 | 343 | 0.0 | 0.0 | 0.00 | 0.21 | 0.16 | 97 | 1013.7 |
| 20260906101548 | 57 | 343 | 0.0 | 0.0 | 0.00 | 0.21 | 0.16 | 97 | 1013.7 |
| 20260906101050 | 57 | 343 | 0.0 | 0.0 | 0.00 | 0.21 | 0.16 | 97 | 1013.7 |
| 20260906100547 | 57 | 343 | 0.0 | 0.0 | 0.00 | 0.21 | 0.16 | 97 | 1013.7 |
| 20260906100046 | 57 | 343 | 0.0 | 0.0 | 0.01 | 0.21 | 0.16 | 97 | 1013.7 |
| 20260906095545 | 57 | 343 | 0.0 | 0.0 | 0.01 | 0.21 | 0.16 | 97 | 1013.5 |
| 20260906095044 | 57 | 343 | 0.0 | 0.0 | 0.01 | 0.21 | 0.16 | 97 | 1013.5 |
| 20260906094549 | 57 | 343 | 0.0 | 0.0 | 0.01 | 0.21 | 0.16 | 97 | 1013.5 |
| 20260906094042 | 57 | 343 | 0.0 | 0.0 | 0.01 | 0.21 | 0.16 | 97 | 1013.4 |
| 20260906093542 | 57 | 343 | 0.0 | 0.0 | 0.01 | 0.21 | 0.16 | 97 | 1013.4 |
| 20260906093041 | 57 | 33 | 0.0 | 0.0 | 0.02 | 0.21 | 0.16 | 97 | 1013.4 |
| 20260906092541 | 58 | 33 | 0.0 | 0.0 | 0.04 | 0.21 | 0.16 | 97 | 1013.3 |
| 20260906092043 | 58 | 33 | 0.0 | 0.0 | 0.06 | 0.21 | 0.16 | 97 | 1013.3 |
| 20260906091546 | 58 | 33 | 0.0 | 0.0 | 0.08 | 0.21 | 0.16 | 97 | 1013.3 |
| 20260906091040 | 58 | 33 | 0.0 | 0.0 | 0.10 | 0.21 | 0.16 | 97 | 1013.3 |
| 20260906090540 | 58 | 33 | 0.0 | 0.0 | 0.12 | 0.21 | 0.16 | 97 | 1013.3 |
| 20260906090042 | 58 | 33 | 0.0 | 0.0 | 0.12 | 0.20 | 0.15 | 97 | 1013.3 |
| 20260906085539 | 58 | 33 | 0.0 | 0.0 | 0.13 | 0.20 | 0.15 | 97 | 1013.3 |
| 20260906085042 | 58 | 33 | 0.0 | 0.0 | 0.13 | 0.20 | 0.15 | 97 | 1013.4 |
| 20260906084539 | 58 | 33 | 0.0 | 0.0 | 0.13 | 0.20 | 0.15 | 97 | 1013.3 |
| 20260906084039 | 58 | 33 | 0.0 | 0.0 | 0.14 | 0.20 | 0.15 | 97 | 1013.3 |
| 20260906083538 | 58 | 33 | 0.0 | 2.0 | 0.14 | 0.20 | 0.15 | 97 | 1013.3 |
| 20260906083038 | 58 | 33 | 0.0 | 4.0 | 0.13 | 0.19 | 0.14 | 97 | 1013.2 |
| 20260906082536 | 58 | 47 | 0.0 | 4.0 | 0.11 | 0.17 | 0.12 | 97 | 1013.2 |
| 20260906082036 | 58 | 92 | 0.0 | 2.0 | 0.08 | 0.14 | 0.09 | 97 | 1013.3 |
| 20260906081540 | 58 | 44 | 0.0 | 2.0 | 0.07 | 0.13 | 0.08 | 97 | 1013.4 |
| 20260906081034 | 58 | 327 | 0.0 | 0.0 | 0.05 | 0.11 | 0.06 | 97 | 1013.0 |
| 20260906080534 | 59 | 157 | 0.0 | 2.0 | 0.03 | 0.09 | 0.04 | 97 | 1012.8 |
| 20260906080035 | 59 | 99 | 0.0 | 2.0 | 0.02 | 0.08 | 0.03 | 97 | 1013.1 |
| 20260906075532 | 59 | 13 | 0.0 | 2.0 | 0.01 | 0.07 | 0.02 | 97 | 1013.2 |
| 20260906075031 | 59 | 40 | 0.0 | 2.0 | 0.01 | 0.07 | 0.02 | 97 | 1013.1 |
| 20260906074531 | 59 | 355 | 0.0 | 0.0 | 0.01 | 0.07 | 0.02 | 97 | 1013.0 |
| 20260906074029 | 59 | 355 | 0.0 | 0.0 | 0.00 | 0.06 | 0.01 | 97 | 1012.9 |
| 20260906073531 | 59 | 346 | 0.0 | 0.0 | 0.00 | 0.06 | 0.01 | 97 | 1012.9 |
| 20260906073028 | 59 | 234 | 0.0 | 0.0 | 0.00 | 0.06 | 0.01 | 97 | 1012.8 |
| 20260906072527 | 59 | 235 | 0.0 | 0.0 | 0.00 | 0.06 | 0.01 | 97 | 1012.8 |
| 20260906072026 | 59 | 137 | 0.0 | 0.0 | 0.00 | 0.06 | 0.01 | 97 | 1012.7 |
| 20260906071528 | 60 | 137 | 0.0 | 1.0 | 0.00 | 0.06 | 0.01 | 97 | 1012.7 |
| 20260906071025 | 60 | 137 | 0.0 | 1.0 | 0.00 | 0.06 | 0.01 | 97 | 1012.7 |
| 20260906070529 | 60 | 137 | 0.0 | 0.0 | 0.00 | 0.06 | 0.01 | 97 | 1012.5 |
| 20260906070025 | 60 | 137 | 0.0 | 0.0 | 0.00 | 0.06 | 0.01 | 97 | 1012.6 |
| 20260906065525 | 60 | 137 | 0.0 | 0.0 | 0.00 | 0.06 | 0.01 | 97 | 1012.6 |
| 20260906065024 | 60 | 137 | 0.0 | 0.0 | 0.00 | 0.06 | 0.01 | 97 | 1012.5 |
| 20260906064527 | 60 | 137 | 0.0 | 0.0 | 0.00 | 0.06 | 0.01 | 97 | 1012.5 |
| 20260906064026 | 60 | 137 | 0.0 | 0.0 | 0.00 | 0.06 | 0.01 | 97 | 1012.4 |
| 20260906063522 | 60 | 137 | 0.0 | 0.0 | 0.00 | 0.06 | 0.01 | 97 | 1012.5 |
| 20260906063022 | 60 | 137 | 0.0 | 0.0 | 0.00 | 0.06 | 0.01 | 97 | 1012.4 |
| 20260906062521 | 60 | 137 | 0.0 | 0.0 | 0.00 | 0.06 | 0.01 | 97 | 1012.5 |
| 20260906062022 | 60 | 137 | 0.0 | 0.0 | 0.00 | 0.06 | 0.01 | 97 | 1012.4 |
| 20260906061521 | 60 | 137 | 0.0 | 0.0 | 0.00 | 0.06 | 0.01 | 97 | 1012.5 |
| 20260906061021 | 60 | 137 | 0.0 | 0.0 | 0.00 | 0.06 | 0.01 | 97 | 1012.5 |
| 20260906060520 | 60 | 100 | 0.0 | 0.0 | 0.00 | 0.06 | 0.01 | 97 | 1012.5 |
| 20260906060020 | 60 | 224 | 0.0 | 0.0 | 0.00 | 0.06 | 0.01 | 97 | 1012.5 |
| 20260906055519 | 61 | 220 | 0.0 | 0.0 | 0.00 | 0.06 | 0.01 | 97 | 1012.5 |
| 20260906055023 | 61 | 218 | 0.0 | 0.0 | 0.00 | 0.06 | 0.01 | 97 | 1012.6 |
| 20260906054518 | 61 | 218 | 0.0 | 0.0 | 0.00 | 0.06 | 0.01 | 97 | 1012.6 |
| 20260906054019 | 61 | 218 | 0.0 | 0.0 | 0.01 | 0.06 | 0.01 | 97 | 1012.5 |
| 20260906053520 | 61 | 218 | 0.0 | 0.0 | 0.01 | 0.06 | 0.01 | 97 | 1012.5 |
| 20260906053017 | 61 | 218 | 0.0 | 0.0 | 0.01 | 0.06 | 0.01 | 97 | 1012.5 |
| 20260906052522 | 61 | 218 | 0.0 | 0.0 | 0.01 | 0.06 | 0.01 | 97 | 1012.6 |
| 20260906052019 | 61 | 218 | 0.0 | 0.0 | 0.01 | 0.06 | 0.01 | 97 | 1012.6 |
| 20260906051518 | 61 | 218 | 0.0 | 0.0 | 0.01 | 0.06 | 0.01 | 97 | 1012.5 |
| 20260906051116 | 61 | 218 | 0.0 | 0.0 | 0.01 | 0.06 | 0.01 | 97 | 1012.6 |
| 20260906050516 | 61 | 218 | 0.0 | 0.0 | 0.01 | 0.06 | 0.01 | 97 | 1012.6 |
| 20260906050017 | 61 | 218 | 0.0 | 0.0 | 0.01 | 0.06 | 0.01 | 97 | 1012.7 |
| 20260906045519 | 61 | 218 | 0.0 | 0.0 | 0.01 | 0.06 | 0.01 | 97 | 1012.6 |
| 20260906045019 | 61 | 218 | 0.0 | 0.0 | 0.01 | 0.06 | 0.01 | 97 | 1012.7 |
| 20260906044514 | 61 | 218 | 0.0 | 0.0 | 0.01 | 0.06 | 0.01 | 97 | 1012.7 |
| 20260906044016 | 61 | 218 | 0.0 | 0.0 | 0.00 | 0.05 | 0.00 | 97 | 1012.5 |
| 20260906043516 | 61 | 218 | 0.0 | 0.0 | 0.00 | 0.05 | 0.00 | 97 | 1012.6 |
| 20260906043014 | 61 | 218 | 0.0 | 0.0 | 0.00 | 0.05 | 0.00 | 97 | 1012.5 |
| 20260906042512 | 61 | 218 | 0.0 | 0.0 | 0.00 | 0.05 | 0.00 | 97 | 1012.5 |
| 20260906042012 | 62 | 218 | 0.0 | 0.0 | 0.00 | 0.05 | 0.00 | 97 | 1012.6 |
| 20260906041515 | 62 | 218 | 0.0 | 0.0 | 0.00 | 0.05 | 0.00 | 97 | 1012.6 |
| 20260906041014 | 62 | 218 | 0.0 | 0.0 | 0.00 | 0.05 | 0.00 | 97 | 1012.6 |
| 20260906040510 | 62 | 218 | 0.0 | 0.0 | 0.01 | 0.05 | 0.00 | 97 | 1012.5 |
| 20260906040024 | 62 | 218 | 0.0 | 0.0 | 0.01 | 0.05 | 0.05 | 97 | 1012.5 |
| 20260906035510 | 62 | 218 | 0.0 | 0.0 | 0.01 | 0.05 | 0.05 | 97 | 1012.5 |
| 20260906035010 | 62 | 218 | 0.0 | 0.0 | 0.01 | 0.05 | 0.05 | 97 | 1012.5 |
| 20260906034512 | 62 | 218 | 0.0 | 0.0 | 0.01 | 0.05 | 0.05 | 97 | 1012.5 |
| 20260906034010 | 62 | 218 | 0.0 | 0.0 | 0.01 | 0.05 | 0.05 | 97 | 1012.5 |
| 20260906033508 | 62 | 218 | 0.0 | 0.0 | 0.01 | 0.05 | 0.05 | 97 | 1012.5 |
| 20260906033009 | 62 | 127 | 0.0 | 0.0 | 0.01 | 0.05 | 0.05 | 97 | 1012.5 |
| 20260906032507 | 62 | 127 | 0.0 | 0.0 | 0.01 | 0.05 | 0.05 | 97 | 1012.4 |
| 20260906032008 | 62 | 127 | 0.0 | 0.0 | 0.02 | 0.05 | 0.05 | 97 | 1012.4 |
| 20260906031507 | 62 | 127 | 0.0 | 0.0 | 0.02 | 0.05 | 0.05 | 97 | 1012.3 |
| 20260906031007 | 62 | 127 | 0.0 | 0.0 | 0.02 | 0.05 | 0.05 | 96 | 1012.3 |
| 20260906030507 | 62 | 124 | 0.0 | 0.0 | 0.02 | 0.04 | 0.04 | 96 | 1012.2 |
| 20260906030007 | 62 | 124 | 0.0 | 0.0 | 0.02 | 0.04 | 0.04 | 96 | 1012.3 |
| 20260906025510 | 62 | 124 | 0.0 | 0.0 | 0.02 | 0.04 | 0.04 | 97 | 1012.3 |
| 20260906025006 | 62 | 139 | 0.0 | 0.0 | 0.02 | 0.04 | 0.04 | 97 | 1012.3 |
| 20260906024505 | 62 | 139 | 0.0 | 0.0 | 0.02 | 0.04 | 0.04 | 97 | 1012.2 |
| 20260906024006 | 62 | 64 | 0.0 | 0.0 | 0.02 | 0.04 | 0.04 | 97 | 1012.2 |
| 20260906023508 | 62 | 64 | 0.0 | 0.0 | 0.02 | 0.04 | 0.04 | 96 | 1012.3 |
| 20260906023005 | 62 | 64 | 0.0 | 2.0 | 0.02 | 0.04 | 0.04 | 96 | 1012.3 |
| 20260906022506 | 63 | 105 | 0.0 | 2.0 | 0.02 | 0.04 | 0.04 | 96 | 1012.2 |
| 20260906022005 | 63 | 203 | 0.0 | 0.0 | 0.01 | 0.03 | 0.03 | 96 | 1012.2 |
| 20260906021505 | 62 | 202 | 0.0 | 0.0 | 0.01 | 0.03 | 0.03 | 96 | 1012.2 |
| 20260906021004 | 62 | 202 | 0.0 | 0.0 | 0.01 | 0.03 | 0.03 | 96 | 1012.2 |
| 20260906020504 | 62 | 201 | 0.0 | 0.0 | 0.00 | 0.02 | 0.02 | 96 | 1012.3 |
| 20260906020004 | 62 | 202 | 0.0 | 0.0 | 0.00 | 0.02 | 0.02 | 96 | 1012.2 |
| 20260906015503 | 63 | 201 | 0.0 | 0.0 | 0.00 | 0.02 | 0.02 | 96 | 1012.2 |
| 20260906015004 | 62 | 202 | 0.0 | 0.0 | 0.00 | 0.02 | 0.02 | 96 | 1012.3 |
| 20260906014510 | 62 | 202 | 0.0 | 0.0 | 0.01 | 0.02 | 0.02 | 96 | 1012.3 |
| 20260906014003 | 63 | 202 | 0.0 | 0.0 | 0.01 | 0.02 | 0.02 | 96 | 1012.3 |
| 20260906013503 | 63 | 202 | 0.0 | 0.0 | 0.01 | 0.02 | 0.02 | 96 | 1012.4 |
| 20260906013005 | 63 | 202 | 0.0 | 0.0 | 0.01 | 0.02 | 0.02 | 96 | 1012.3 |
| 20260906012503 | 63 | 202 | 0.0 | 0.0 | 0.01 | 0.02 | 0.02 | 96 | 1012.3 |
| 20260906012002 | 63 | 202 | 0.0 | 0.0 | 0.01 | 0.02 | 0.02 | 96 | 1012.3 |
| 20260906011502 | 63 | 201 | 0.0 | 0.0 | 0.01 | 0.02 | 0.02 | 96 | 1012.3 |
| 20260906011002 | 63 | 202 | 0.0 | 0.0 | 0.01 | 0.02 | 0.02 | 96 | 1012.3 |
| 20260906010501 | 63 | 201 | 0.0 | 0.0 | 0.01 | 0.02 | 0.02 | 95 | 1012.3 |
| 20260906010104 | 63 | 201 | 0.0 | 0.0 | 0.01 | 0.02 | 0.02 | 95 | 1012.2 |
| 20260906005559 | 63 | 202 | 0.0 | 0.0 | 0.01 | 0.02 | 0.02 | 95 | 1012.2 |
| 20260906005059 | 63 | 202 | 0.0 | 0.0 | 0.01 | 0.02 | 0.02 | 95 | 1012.1 |
| 20260906004601 | 63 | 201 | 0.0 | 0.0 | 0.00 | 0.01 | 0.01 | 95 | 1012.0 |
| 20260906004058 | 63 | 202 | 0.0 | 0.0 | 0.00 | 0.01 | 0.01 | 95 | 1012.1 |
| 20260906003558 | 63 | 202 | 0.0 | 0.0 | 0.00 | 0.01 | 0.01 | 95 | 1012.1 |
| 20260906003057 | 63 | 201 | 0.0 | 0.0 | 0.00 | 0.01 | 0.01 | 94 | 1011.9 |
| 20260906002559 | 63 | 202 | 0.0 | 0.0 | 0.00 | 0.01 | 0.01 | 94 | 1011.9 |
| 20260906002056 | 63 | 202 | 0.0 | 0.0 | 0.00 | 0.01 | 0.01 | 94 | 1011.8 |
| 20260906001555 | 63 | 201 | 0.0 | 0.0 | 0.00 | 0.01 | 0.01 | 94 | 1011.8 |
| 20260906001056 | 63 | 201 | 0.0 | 0.0 | 0.00 | 0.01 | 0.01 | 94 | 1011.8 |
| 20260906000555 | 63 | 202 | 0.0 | 0.0 | 0.00 | 0.01 | 0.01 | 93 | 1011.7 |
| 20260906000100 | 63 | 202 | 0.0 | 0.0 | 0.00 | 0.01 | 0.01 | 93 | 1011.7 |
| 20260905235554 | 63 | 201 | 0.0 | 0.0 | 0.00 | 0.01 | 0.01 | 93 | 1011.7 |
| 20260905235054 | 63 | 202 | 0.0 | 0.0 | 0.00 | 0.01 | 0.01 | 93 | 1011.7 |
| 20260905234555 | 63 | 202 | 0.0 | 0.0 | 0.00 | 0.01 | 0.01 | 93 | 1011.6 |
| 20260905234057 | 63 | 202 | 0.0 | 0.0 | 0.00 | 0.01 | 0.01 | 92 | 1011.5 |
| 20260905233552 | 63 | 201 | 0.0 | 0.0 | 0.00 | 0.01 | 0.01 | 91 | 1011.5 |
| 20260905233100 | 64 | 202 | 0.0 | 0.0 | 0.00 | 0.01 | 0.01 | 91 | 1011.4 |
| 20260905232552 | 64 | 202 | 0.0 | 0.0 | 0.00 | 0.01 | 0.01 | 90 | 1011.4 |
| 20260905232052 | 64 | 117 | 0.0 | 0.0 | 0.00 | 0.01 | 0.01 | 90 | 1011.4 |
| 20260905231556 | 64 | 66 | 0.0 | 0.0 | 0.00 | 0.01 | 0.01 | 89 | 1011.5 |
| 20260905231051 | 65 | 30 | 0.0 | 0.0 | 0.00 | 0.01 | 0.01 | 89 | 1011.4 |
| 20260905230550 | 65 | 30 | 0.0 | 0.0 | 0.00 | 0.01 | 0.01 | 88 | 1011.3 |
| 20260905230050 | 65 | 19 | 0.0 | 0.0 | 0.00 | 0.01 | 0.01 | 88 | 1011.3 |
| 20260905225550 | 65 | 19 | 0.0 | 0.0 | 0.00 | 0.01 | 0.01 | 88 | 1011.3 |
| 20260905225048 | 65 | 19 | 0.0 | 0.0 | 0.00 | 0.01 | 0.01 | 88 | 1011.2 |
| 20260905224549 | 65 | 51 | 0.0 | 0.0 | 0.00 | 0.01 | 0.01 | 88 | 1011.1 |
| 20260905224047 | 65 | 51 | 0.0 | 0.0 | 0.00 | 0.01 | 0.01 | 88 | 1011.1 |
| 20260905223546 | 65 | 51 | 0.0 | 0.0 | 0.00 | 0.01 | 0.01 | 88 | 1011.0 |
| 20260905223047 | 65 | 51 | 0.0 | 0.0 | 0.00 | 0.01 | 0.01 | 88 | 1011.0 |
| 20260905222548 | 65 | 45 | 0.0 | 0.0 | 0.00 | 0.01 | 0.01 | 88 | 1011.0 |
| 20260905222048 | 65 | 42 | 0.0 | 0.0 | 0.00 | 0.01 | 0.01 | 88 | 1011.0 |
| 20260905221600 | 66 | 69 | 0.0 | 0.0 | 0.00 | 0.01 | 0.01 | 88 | 1011.0 |
| 20260905221046 | 66 | 68 | 0.0 | 0.0 | 0.00 | 0.01 | 0.01 | 87 | 1011.0 |
| 20260905220545 | 66 | 68 | 0.0 | 1.0 | 0.00 | 0.01 | 0.01 | 87 | 1010.9 |
| 20260905220045 | 66 | 67 | 0.0 | 1.0 | 0.00 | 0.01 | 0.01 | 87 | 1010.9 |
| 20260905215543 | 66 | 51 | 0.0 | 0.0 | 0.00 | 0.01 | 0.01 | 88 | 1010.8 |
| 20260905215045 | 66 | 14 | 0.0 | 0.0 | 0.00 | 0.01 | 0.01 | 88 | 1010.7 |
| 20260905214542 | 66 | 27 | 0.0 | 1.0 | 0.00 | 0.01 | 0.01 | 87 | 1010.6 |
| 20260905214041 | 65 | 27 | 0.0 | 4.0 | 0.00 | 0.01 | 0.01 | 87 | 1010.6 |
| 20260905213540 | 65 | 360 | 0.0 | 2.0 | 0.00 | 0.01 | 0.01 | 87 | 1010.5 |
| 20260905213040 | 65 | 53 | 0.0 | 2.0 | 0.00 | 0.01 | 0.01 | 88 | 1010.4 |
| 20260905212543 | 65 | 134 | 0.0 | 5.0 | 0.00 | 0.01 | 0.01 | 88 | 1010.4 |
| 20260905212039 | 65 | 108 | 0.0 | 5.0 | 0.00 | 0.01 | 0.01 | 88 | 1010.4 |
| 20260905211538 | 65 | 35 | 0.0 | 4.0 | 0.00 | 0.01 | 0.01 | 88 | 1010.3 |
| 20260905211037 | 65 | 86 | 0.0 | 6.0 | 0.00 | 0.01 | 0.01 | 88 | 1010.2 |
| 20260905210540 | 65 | 26 | 1.0 | 8.0 | 0.00 | 0.01 | 0.01 | 88 | 1010.2 |
| 20260905210037 | 65 | 15 | 1.0 | 8.0 | 0.00 | 0.01 | 0.01 | 88 | 1010.1 |
| 20260905205537 | 65 | 114 | 3.0 | 6.0 | 0.00 | 0.01 | 0.01 | 89 | 1010.1 |
| 20260905205036 | 65 | 111 | 2.0 | 7.0 | 0.00 | 0.01 | 0.01 | 89 | 1010.1 |
| 20260905204540 | 65 | 39 | 2.0 | 8.0 | 0.00 | 0.01 | 0.01 | 88 | 1010.1 |
| 20260905204035 | 66 | 57 | 5.0 | 8.0 | 0.00 | 0.01 | 0.01 | 89 | 1010.1 |
| 20260905203535 | 66 | 55 | 2.0 | 8.0 | 0.00 | 0.01 | 0.01 | 89 | 1010.1 |
| 20260905203035 | 66 | 94 | 3.0 | 8.0 | 0.00 | 0.01 | 0.01 | 88 | 1010.0 |
| 20260905202535 | 66 | 119 | 3.0 | 9.0 | 0.01 | 0.01 | 0.01 | 86 | 1010.1 |
| 20260905202034 | 67 | 65 | 3.0 | 12.0 | 0.01 | 0.01 | 0.01 | 82 | 1010.1 |
| 20260905201534 | 70 | 5 | 8.0 | 12.0 | 0.01 | 0.01 | 0.01 | 76 | 1010.0 |
| 20260905201032 | 72 | 318 | 5.0 | 21.0 | 0.01 | 0.01 | 0.01 | 73 | 1009.7 |
| 20260905200535 | 73 | 141 | 3.0 | 13.0 | 0.01 | 0.01 | 0.01 | 79 | 1009.6 |
| 20260905200032 | 73 | 117 | 3.0 | 6.0 | 0.01 | 0.01 | 0.01 | 77 | 1009.2 |
| 20260905195531 | 73 | 49 | 1.0 | 4.0 | 0.01 | 0.01 | 0.01 | 75 | 1009.1 |
| 20260905195031 | 73 | 103 | 1.0 | 4.0 | 0.01 | 0.01 | 0.01 | 76 | 1009.1 |
| 20260905194530 | 73 | 105 | 1.0 | 3.0 | 0.01 | 0.01 | 0.01 | 76 | 1009.1 |
| 20260905194032 | 73 | 118 | 1.0 | 4.0 | 0.01 | 0.01 | 0.01 | 72 | 1009.1 |
| 20260905193530 | 73 | 27 | 0.0 | 6.0 | 0.01 | 0.01 | 0.01 | 72 | 1009.0 |
| 20260905193039 | 73 | 19 | 0.0 | 6.0 | 0.01 | 0.01 | 0.01 | 69 | 1009.1 |
| 20260905192532 | 73 | 107 | 1.0 | 9.0 | 0.00 | 0.00 | 0.00 | 70 | 1009.1 |
| 20260905192030 | 73 | 110 | 4.0 | 9.0 | 0.00 | 0.00 | 0.00 | 68 | 1009.1 |
| 20260905191530 | 73 | 26 | 0.0 | 8.0 | 0.00 | 0.00 | 0.00 | 67 | 1009.0 |
| 20260905191029 | 73 | 77 | 4.0 | 7.0 | 0.00 | 0.00 | 0.00 | 68 | 1009.1 |
| 20260905190529 | 72 | 98 | 1.0 | 6.0 | 0.00 | 0.00 | 0.00 | 69 | 1009.1 |
| 20260905190039 | 72 | 59 | 0.0 | 6.0 | 0.00 | 0.00 | 0.00 | 71 | 1009.1 |
| 20260905185529 | 72 | 102 | 3.0 | 6.0 | 0.00 | 0.00 | 0.00 | 70 | 1009.1 |
| 20260905185031 | 72 | 80 | 1.0 | 5.0 | 0.00 | 0.00 | 0.00 | 70 | 1009.2 |
| 20260905184532 | 72 | 360 | 1.0 | 6.0 | 0.00 | 0.00 | 0.00 | 72 | 1009.2 |
| 20260905184028 | 72 | 163 | 2.0 | 7.0 | 0.00 | 0.00 | 0.00 | 70 | 1009.2 |
| 20260905183527 | 73 | 55 | 3.0 | 7.0 | 0.00 | 0.00 | 0.00 | 70 | 1009.2 |
| 20260905183027 | 73 | 49 | 2.0 | 8.0 | 0.00 | 0.00 | 0.00 | 68 | 1009.2 |
| 20260905182528 | 74 | 112 | 2.0 | 8.0 | 0.00 | 0.00 | 0.00 | 66 | 1009.1 |
| 20260905182027 | 75 | 107 | 2.0 | 7.0 | 0.00 | 0.00 | 0.00 | 65 | 1009.1 |
| 20260905181527 | 74 | 115 | 3.0 | 6.0 | 0.00 | 0.00 | 0.00 | 67 | 1009.2 |
| 20260905181026 | 74 | 90 | 4.0 | 6.0 | 0.00 | 0.00 | 0.00 | 67 | 1009.1 |
| 20260905180527 | 73 | 269 | 0.0 | 4.0 | 0.00 | 0.00 | 0.00 | 72 | 1009.1 |
| 20260905180034 | 72 | 121 | 0.0 | 4.0 | 0.00 | 0.00 | 0.00 | 71 | 1009.2 |
| 20260905175526 | 71 | 61 | 0.0 | 6.0 | 0.00 | 0.00 | 0.00 | 70 | 1009.2 |
| 20260905175026 | 72 | 107 | 1.0 | 8.0 | 0.00 | 0.00 | 0.00 | 70 | 1009.2 |
| 20260905174526 | 72 | 14 | 3.0 | 9.0 | 0.00 | 0.00 | 0.00 | 67 | 1009.2 |
| 20260905174025 | 73 | 153 | 3.0 | 5.0 | 0.00 | 0.00 | 0.00 | 68 | 1009.1 |
| 20260905173525 | 73 | 68 | 1.0 | 6.0 | 0.00 | 0.00 | 0.00 | 67 | 1009.0 |
| 20260905173024 | 73 | 78 | 3.0 | 6.0 | 0.00 | 0.00 | 0.00 | 68 | 1009.0 |
| 20260905172525 | 74 | 28 | 3.0 | 7.0 | 0.00 | 0.00 | 0.00 | 67 | 1008.9 |
| 20260905172024 | 74 | 331 | 3.0 | 8.0 | 0.00 | 0.00 | 0.00 | 63 | 1008.9 |
| 20260905171530 | 75 | 87 | 4.0 | 8.0 | 0.00 | 0.00 | 0.00 | 64 | 1008.9 |
| 20260905171024 | 75 | 301 | 1.0 | 6.0 | 0.00 | 0.00 | 0.00 | 64 | 1008.8 |
| 20260905170521 | 74 | 68 | 1.0 | 3.0 | 0.00 | 0.00 | 0.00 | 72 | 1008.9 |
| 20260905170021 | 72 | 327 | 0.0 | 6.0 | 0.00 | 0.00 | 0.00 | 73 | 1009.0 |
| 20260905165522 | 71 | 41 | 2.0 | 6.0 | 0.00 | 0.00 | 0.00 | 73 | 1009.0 |
| 20260905165019 | 71 | 128 | 1.0 | 5.0 | 0.00 | 0.00 | 0.00 | 71 | 1009.0 |
| 20260905164519 | 71 | 110 | 1.0 | 5.0 | 0.00 | 0.00 | 0.00 | 71 | 1009.0 |
| 20260905164020 | 72 | 26 | 2.0 | 6.0 | 0.00 | 0.00 | 0.00 | 71 | 1009.1 |
| 20260905163518 | 72 | 70 | 2.0 | 6.0 | 0.00 | 0.00 | 0.00 | 70 | 1009.0 |
| 20260905163018 | 72 | 57 | 1.0 | 8.0 | 0.00 | 0.00 | 0.00 | 72 | 1009.1 |
| 20260905162517 | 71 | 344 | 3.0 | 7.0 | 0.00 | 0.00 | 0.00 | 74 | 1009.2 |
| 20260905162020 | 71 | 144 | 2.0 | 5.0 | 0.00 | 0.00 | 0.00 | 77 | 1009.1 |
| 20260905161523 | 71 | 102 | 0.0 | 5.0 | 0.00 | 0.00 | 0.00 | 75 | 1009.2 |
| 20260905161016 | 71 | 58 | 2.0 | 5.0 | 0.00 | 0.00 | 0.00 | 76 | 1009.2 |
| 20260905160517 | 71 | 88 | 1.0 | 2.0 | 0.00 | 0.00 | 0.00 | 78 | 1009.2 |
| 20260905160016 | 69 | 238 | 1.0 | 2.0 | 0.00 | 0.00 | 0.00 | 81 | 1009.2 |
| 20260905155513 | 69 | 204 | 0.0 | 2.0 | 0.00 | 0.00 | 0.00 | 81 | 1009.2 |
| 20260905155012 | 69 | 37 | 0.0 | 2.0 | 0.00 | 0.00 | 0.00 | 79 | 1009.3 |
| 20260905154513 | 69 | 28 | 0.0 | 2.0 | 0.00 | 0.00 | 0.00 | 79 | 1009.4 |
| 20260905154017 | 69 | 360 | 0.0 | 4.0 | 0.00 | 0.00 | 0.00 | 76 | 1009.3 |
| 20260905153513 | 70 | 36 | 1.0 | 5.0 | 0.00 | 0.00 | 0.00 | 75 | 1009.3 |
| 20260905153012 | 70 | 31 | 1.0 | 5.0 | 0.00 | 0.00 | 0.00 | 75 | 1009.3 |
| 20260905152513 | 70 | 119 | 1.0 | 6.0 | 0.00 | 0.00 | 0.00 | 75 | 1009.3 |
| 20260905152016 | 70 | 360 | 3.0 | 7.0 | 0.00 | 0.00 | 0.00 | 75 | 1009.2 |
| 20260905151512 | 70 | 13 | 3.0 | 6.0 | 0.00 | 0.00 | 0.00 | 75 | 1009.3 |
| 20260905151011 | 70 | 75 | 0.0 | 5.0 | 0.00 | 0.00 | 0.00 | 78 | 1009.3 |
| 20260905150511 | 70 | 101 | 1.0 | 6.0 | 0.00 | 0.00 | 0.00 | 76 | 1009.3 |
| 20260905150011 | 70 | 24 | 2.0 | 6.0 | 0.00 | 0.00 | 0.00 | 77 | 1009.3 |
| 20260905145515 | 70 | 190 | 0.0 | 5.0 | 0.00 | 0.00 | 0.00 | 77 | 1009.3 |
| 20260905145010 | 70 | 177 | 1.0 | 5.0 | 0.00 | 0.00 | 0.00 | 78 | 1009.3 |
| 20260905144518 | 70 | 102 | 0.0 | 5.0 | 0.00 | 0.00 | 0.00 | 77 | 1009.4 |
| 20260905144013 | 70 | 66 | 0.0 | 5.0 | 0.00 | 0.00 | 0.00 | 77 | 1009.3 |
| 20260905143509 | 70 | 67 | 1.0 | 6.0 | 0.00 | 0.00 | 0.00 | 77 | 1009.3 |
| 20260905143008 | 70 | 113 | 2.0 | 6.0 | 0.00 | 0.00 | 0.00 | 78 | 1009.4 |
| 20260905142508 | 69 | 304 | 0.0 | 2.0 | 0.00 | 0.00 | 0.00 | 79 | 1009.4 |
| 20260905142005 | 69 | 301 | 0.0 | 2.0 | 0.00 | 0.00 | 0.00 | 82 | 1009.4 |
| 20260905141510 | 68 | 86 | 0.0 | 2.0 | 0.00 | 0.00 | 0.00 | 82 | 1009.5 |
| 20260905141003 | 68 | 51 | 0.0 | 2.0 | 0.00 | 0.00 | 0.00 | 82 | 1009.6 |
| 20260905140505 | 68 | 26 | 0.0 | 2.0 | 0.00 | 0.00 | 0.00 | 83 | 1009.5 |
| 20260905140002 | 67 | 14 | 0.0 | 2.0 | 0.00 | 0.00 | 0.00 | 83 | 1009.5 |
| 20260905135600 | 67 | 340 | 0.0 | 4.0 | 0.00 | 0.00 | 0.00 | 82 | 1009.5 |
| 20260905135100 | 67 | 22 | 0.0 | 4.0 | 0.00 | 0.00 | 0.00 | 84 | 1009.4 |